TimeMST,TemperatureF,Dew PointF,Humidity,Sea Level PressureIn,VisibilityMPH,Wind Direction,Wind SpeedMPH,Gust SpeedMPH,PrecipitationIn,Events,Conditions,WindDirDegrees,DateUTC
12:16 AM,6.8,3.2,85,29.88,0.8,North,29.9,36.8,0.00,Snow,Light Snow,350,2013-01-11 07:16:00
12:30 AM,6.8,3.2,85,29.89,1.2,North,27.6,-,0.00,Snow,Light Snow,350,2013-01-11 07:30:00
12:56 AM,7.0,3.0,84,30.08,1.0,North,26.5,-,0.00,Snow,Light Snow,350,2013-01-11 07:56:00
1:37 AM,6.8,3.2,85,29.90,0.8,North,26.5,34.5,0.00,Snow,Light Snow,350,2013-01-11 08:37:00
1:46 AM,6.8,3.2,85,29.90,1.0,North,26.5,32.2,0.00,Snow,Light Snow,350,2013-01-11 08:46:00
1:56 AM,6.1,3.0,87,30.10,1.0,North,21.9,-,0.00,Snow,Light Snow,350,2013-01-11 08:56:00
2:12 AM,6.8,3.2,85,29.91,0.8,North,23.0,-,0.00,Snow,Light Snow,350,2013-01-11 09:12:00
2:19 AM,6.8,1.4,79,29.91,1.0,North,25.3,32.2,0.00,Snow,Light Snow,350,2013-01-11 09:19:00
2:28 AM,6.8,1.4,79,29.92,0.8,North,26.5,33.4,0.00,Snow,Light Snow,350,2013-01-11 09:28:00
2:39 AM,6.8,1.4,79,29.92,1.0,North,27.6,33.4,0.00,Snow,Light Snow,350,2013-01-11 09:39:00
2:56 AM,6.1,1.9,83,30.12,1.0,NNW,26.5,32.2,0.00,Snow,Light Snow,340,2013-01-11 09:56:00
3:56 AM,6.1,1.9,83,30.14,1.5,NNW,27.6,-,0.00,Snow,Light Snow,340,2013-01-11 10:56:00
4:56 AM,5.0,1.9,87,29.94,1.5,NNW,24.2,-,0.00,Snow,Light Snow,340,2013-01-11 11:56:00
5:43 AM,5.0,1.4,85,29.94,2.5,NNW,23.0,-,0.00,Snow,Light Snow,340,2013-01-11 12:43:00
5:56 AM,5.0,1.0,84,30.15,2.5,NNW,24.2,-,0.00,Snow,Light Snow,340,2013-01-11 12:56:00
6:12 AM,5.0,1.4,85,29.95,3.0,North,23.0,-,0.00,Snow,Light Snow,350,2013-01-11 13:12:00
6:49 AM,5.0,1.4,85,29.97,2.5,North,20.7,-,0.00,Snow,Light Snow,350,2013-01-11 13:49:00
6:56 AM,5.0,1.0,84,30.19,2.5,North,21.9,-,0.00,Snow,Light Snow,350,2013-01-11 13:56:00
7:14 AM,5.0,1.4,85,29.98,3.0,North,21.9,-,0.00,Snow,Light Snow,350,2013-01-11 14:14:00
7:36 AM,5.0,1.4,85,30.00,2.5,North,21.9,-,0.00,Snow,Light Snow,350,2013-01-11 14:36:00
7:52 AM,5.0,1.4,85,30.01,3.0,North,20.7,-,0.00,Snow,Light Snow,350,2013-01-11 14:52:00
7:56 AM,3.9,-0.0,84,30.23,3.0,North,20.7,-,0.00,Snow,Light Snow,350,2013-01-11 14:56:00
8:07 AM,3.2,-0.4,85,30.02,2.5,North,23.0,-,0.00,Snow,Light Snow,350,2013-01-11 15:07:00
8:19 AM,3.2,-0.4,85,30.02,3.0,North,23.0,-,0.00,Snow,Light Snow,350,2013-01-11 15:19:00
8:28 AM,3.2,-0.4,85,30.02,2.0,North,21.9,-,0.00,Snow,Light Snow,350,2013-01-11 15:28:00
8:38 AM,3.2,-0.4,85,30.02,1.5,North,21.9,-,0.00,Snow,Light Snow,350,2013-01-11 15:38:00
8:56 AM,3.9,-0.0,84,30.24,1.2,North,23.0,-,0.00,Snow,Light Snow,350,2013-01-11 15:56:00
9:53 AM,5.0,1.4,85,30.04,0.8,North,19.6,-,0.00,Snow,Light Snow,350,2013-01-11 16:53:00
9:56 AM,5.0,1.0,84,30.26,1.0,North,20.7,-,0.00,Snow,Light Snow,350,2013-01-11 16:56:00
10:27 AM,5.0,1.4,85,30.05,2.0,North,20.7,-,0.00,Snow,Light Snow,350,2013-01-11 17:27:00
10:37 AM,6.8,1.4,79,30.05,1.5,North,19.6,-,0.00,Snow,Light Snow,350,2013-01-11 17:37:00
10:56 AM,6.1,1.0,80,30.27,1.2,North,19.6,-,0.00,Snow,Light Snow,350,2013-01-11 17:56:00
11:07 AM,6.8,1.4,79,30.05,1.8,NNW,18.4,-,N/A,Snow,Light Snow,340,2013-01-11 18:07:00
11:15 AM,6.8,1.4,79,30.05,2.5,NNW,17.3,-,0.00,Snow,Light Snow,340,2013-01-11 18:15:00
11:25 AM,6.8,1.4,79,30.05,4.0,NNW,18.4,-,0.00,Snow,Light Snow,340,2013-01-11 18:25:00
11:56 AM,7.0,1.0,77,30.28,5.0,NNW,12.7,-,0.00,,Haze,340,2013-01-11 18:56:00
12:56 PM,8.1,3.0,80,30.27,10.0,NNW,16.1,-,N/A,,Overcast,340,2013-01-11 19:56:00
1:56 PM,10.0,3.0,73,30.27,10.0,NNW,11.5,-,N/A,,Mostly Cloudy,340,2013-01-11 20:56:00
2:56 PM,9.0,1.9,73,30.30,10.0,NNW,10.4,-,N/A,,Mostly Cloudy,340,2013-01-11 21:56:00
3:56 PM,10.0,3.0,73,30.30,10.0,NNW,9.2,-,N/A,,Unknown,330,2013-01-11 22:56:00
4:56 PM,3.9,-0.9,80,30.33,10.0,NNW,6.9,-,N/A,,Clear,330,2013-01-11 23:56:00
5:56 PM,3.0,-0.9,84,30.32,10.0,Calm,Calm,-,N/A,,Overcast,0,2013-01-12 00:56:00
6:56 PM,1.0,-2.9,83,30.32,10.0,Calm,Calm,-,N/A,,Clear,0,2013-01-12 01:56:00
7:56 PM,-0.0,-2.9,88,30.30,10.0,South,3.5,-,N/A,,Clear,170,2013-01-12 02:56:00
8:56 PM,-0.9,-5.1,83,30.29,10.0,SW,3.5,-,N/A,,Clear,220,2013-01-12 03:56:00
9:56 PM,-2.9,-6.0,87,30.27,10.0,SSW,3.5,-,N/A,,Clear,210,2013-01-12 04:56:00
10:56 PM,-5.8,-7.6,92,30.00,10.0,SE,8.1,-,N/A,,Clear,130,2013-01-12 05:56:00
11:56 PM,-6.0,-9.0,87,30.23,10.0,SE,10.4,-,N/A,,Clear,140,2013-01-12 06:56:00